Time;durP1;ratioP1;P1;durP2;ratioP2;P2;SDS_P1;SDS_P2;PMS_P1;PMS_P2;Temp;Humidity;BMP_temperature;BMP_pressure;BME280_temperature;BME280_humidity;BME280_pressure;Samples;Min_cycle;Max_cycle;Signal;HPM_P1;HPM_P2
2022/11/10 00:02:24;;;;;;;2.35;1.10;;;;;;;;;;5088336;28;20503;-61
2022/11/10 00:04:50;;;;;;;3.08;1.55;;;;;;;;;;5087904;27;20158;-61
2022/11/10 00:07:17;;;;;;;4.45;2.28;;;;;;;;;;5089673;28;20047;-59
2022/11/10 00:09:44;;;;;;;6.30;2.63;;;;;;;;;;5085876;28;20035;-61
2022/11/10 00:12:10;;;;;;;5.18;1.98;;;;;;;;;;5060879;28;20036;-63
2022/11/10 00:17:35;;;;;;;5.15;1.45;;;;;;;;;;5025390;28;20057;-61
2022/11/10 00:20:02;;;;;;;6.38;2.30;;;;;;;;;;5089085;28;20122;-63
2022/11/10 00:22:28;;;;;;;2.78;1.85;;;;;;;;;;5087930;28;20044;-61
2022/11/10 00:24:55;;;;;;;2.10;1.00;;;;;;;;;;5088084;28;20111;-63
2022/11/10 00:27:22;;;;;;;4.88;1.08;;;;;;;;;;5084469;28;20039;-64
2022/11/10 00:29:49;;;;;;;4.68;2.40;;;;;;;;;;5086831;28;20158;-61
2022/11/10 00:32:15;;;;;;;3.65;2.03;;;;;;;;;;5089661;28;20130;-64
2022/11/10 00:34:42;;;;;;;2.30;1.65;;;;;;;;;;5089553;28;20510;-61
2022/11/10 00:37:09;;;;;;;15.63;2.70;;;;;;;;;;5089814;28;20039;-64
2022/11/10 00:39:35;;;;;;;2.28;1.75;;;;;;;;;;5088300;27;20066;-64
2022/11/10 00:42:02;;;;;;;5.68;1.58;;;;;;;;;;5088682;28;20066;-64
2022/11/10 00:44:29;;;;;;;5.82;2.72;;;;;;;;;;5087650;27;20040;-66
2022/11/10 00:46:55;;;;;;;4.20;1.92;;;;;;;;;;5088290;28;20902;-64
2022/11/10 00:49:22;;;;;;;3.67;1.90;;;;;;;;;;5088569;28;20048;-67
2022/11/10 00:51:48;;;;;;;4.07;2.78;;;;;;;;;;5088163;28;20064;-63
2022/11/10 00:54:15;;;;;;;1.98;0.98;;;;;;;;;;5087557;28;20236;-64
2022/11/10 00:56:42;;;;;;;3.30;1.10;;;;;;;;;;5081274;28;20053;-65
2022/11/10 00:59:08;;;;;;;2.47;1.33;;;;;;;;;;5071661;28;21018;-65
2022/11/10 01:01:35;;;;;;;2.00;1.20;;;;;;;;;;5088308;27;20061;-66
2022/11/10 01:04:02;;;;;;;3.17;1.38;;;;;;;;;;5087929;28;20508;-65
2022/11/10 01:06:28;;;;;;;1.42;0.98;;;;;;;;;;5087519;28;20039;-62
2022/11/10 01:08:55;;;;;;;5.22;2.65;;;;;;;;;;5067735;28;20101;-64
2022/11/10 01:11:23;;;;;;;3.78;2.13;;;;;;;;;;5086052;28;20131;-64
2022/11/10 01:13:51;;;;;;;5.15;2.63;;;;;;;;;;5087305;28;20044;-65
2022/11/10 01:16:19;;;;;;;3.90;1.83;;;;;;;;;;5088622;27;20031;-66
2022/11/10 01:18:50;;;;;;;3.95;2.88;;;;;;;;;;5088386;28;20123;-65
2022/11/10 01:21:17;;;;;;;3.95;2.25;;;;;;;;;;5087190;28;20043;-63
2022/11/10 01:23:43;;;;;;;6.45;2.03;;;;;;;;;;5088530;28;20064;-63
2022/11/10 01:26:10;;;;;;;3.83;1.65;;;;;;;;;;5088624;27;20063;-64
2022/11/10 01:28:37;;;;;;;4.88;1.73;;;;;;;;;;5087188;28;20096;-63
2022/11/10 01:31:05;;;;;;;2.67;1.30;;;;;;;;;;5087240;28;20837;-63
2022/11/10 01:33:32;;;;;;;17.92;2.30;;;;;;;;;;5083537;28;20047;-65
2022/11/10 01:35:59;;;;;;;2.65;1.35;;;;;;;;;;5080795;28;20034;-67
2022/11/10 01:38:27;;;;;;;1.08;0.95;;;;;;;;;;5086783;28;20044;-64
2022/11/10 01:40:54;;;;;;;2.90;1.63;;;;;;;;;;5088172;28;20050;-65
2022/11/10 01:43:20;;;;;;;1.67;1.00;;;;;;;;;;5064168;28;20035;-64
2022/11/10 01:45:47;;;;;;;8.93;2.70;;;;;;;;;;5087892;28;20036;-63
2022/11/10 01:48:29;;;;;;;6.97;3.05;;;;;;;;;;5088396;28;20858;-61
2022/11/10 01:50:58;;;;;;;2.15;1.45;;;;;;;;;;5085182;28;20047;-62
2022/11/10 01:53:25;;;;;;;2.22;1.55;;;;;;;;;;5073930;28;20578;-61
2022/11/10 01:55:53;;;;;;;3.80;2.17;;;;;;;;;;5088227;27;20138;-62
2022/11/10 01:58:22;;;;;;;2.42;2.10;;;;;;;;;;5087234;28;20468;-65
2022/11/10 02:00:49;;;;;;;0.85;0.75;;;;;;;;;;5076096;28;20618;-62
2022/11/10 02:03:21;;;;;;;3.03;1.83;;;;;;;;;;5087422;28;20028;-66
2022/11/10 02:05:49;;;;;;;4.30;2.33;;;;;;;;;;5085666;28;20133;-63
2022/11/10 02:08:16;;;;;;;0.80;0.65;;;;;;;;;;5078394;28;20700;-67
2022/11/10 02:10:43;;;;;;;4.75;2.35;;;;;;;;;;5084630;27;20047;-63
2022/11/10 02:13:11;;;;;;;3.38;2.47;;;;;;;;;;5085268;28;20135;-62
2022/11/10 02:15:37;;;;;;;3.60;1.77;;;;;;;;;;5084600;28;20086;-68
2022/11/10 02:18:04;;;;;;;20.48;1.20;;;;;;;;;;5089491;27;20521;-62
2022/11/10 02:20:31;;;;;;;2.28;1.52;;;;;;;;;;5087891;27;20028;-62
2022/11/10 02:22:57;;;;;;;1.50;0.90;;;;;;;;;;5086618;28;20043;-64
2022/11/10 02:25:25;;;;;;;1.85;1.27;;;;;;;;;;5070805;28;20036;-64
2022/11/10 02:27:52;;;;;;;1.33;0.75;;;;;;;;;;5085338;28;20059;-62
2022/11/10 02:30:18;;;;;;;3.63;1.95;;;;;;;;;;5085012;28;20641;-64
2022/11/10 02:32:45;;;;;;;3.38;2.17;;;;;;;;;;5084910;28;20050;-66
2022/11/10 02:35:11;;;;;;;1.58;1.13;;;;;;;;;;5060001;28;20036;-64
2022/11/10 02:37:38;;;;;;;1.75;1.05;;;;;;;;;;5063351;28;20043;-64
2022/11/10 02:40:05;;;;;;;2.45;1.63;;;;;;;;;;5081184;28;20042;-62
2022/11/10 02:42:31;;;;;;;2.95;1.15;;;;;;;;;;5085496;28;20076;-64
2022/11/10 02:44:58;;;;;;;2.42;1.85;;;;;;;;;;5063175;28;20589;-64
2022/11/10 02:47:25;;;;;;;1.10;0.88;;;;;;;;;;5084830;28;20040;-64
2022/11/10 02:49:52;;;;;;;1.35;0.90;;;;;;;;;;5086084;28;20046;-62
2022/11/10 02:52:18;;;;;;;6.22;2.28;;;;;;;;;;5083889;28;20047;-67
2022/11/10 02:54:45;;;;;;;0.82;0.55;;;;;;;;;;5083343;28;20047;-62
2022/11/10 02:57:12;;;;;;;20.02;2.95;;;;;;;;;;5085878;28;20044;-62
2022/11/10 02:59:38;;;;;;;4.65;2.60;;;;;;;;;;5084507;28;22217;-63
2022/11/10 03:02:05;;;;;;;2.75;1.85;;;;;;;;;;5085597;28;20109;-62
2022/11/10 03:04:32;;;;;;;13.32;2.40;;;;;;;;;;5085622;28;20097;-64
2022/11/10 03:06:58;;;;;;;0.93;0.60;;;;;;;;;;5085918;28;20136;-61
2022/11/10 03:09:25;;;;;;;1.92;1.45;;;;;;;;;;5085636;28;20047;-63
2022/11/10 03:11:51;;;;;;;1.75;1.40;;;;;;;;;;5085651;28;20039;-65
2022/11/10 03:14:18;;;;;;;1.38;1.10;;;;;;;;;;5084575;27;20028;-66
2022/11/10 03:16:44;;;;;;;1.75;0.70;;;;;;;;;;5086384;28;20040;-62
2022/11/10 03:19:11;;;;;;;2.25;1.73;;;;;;;;;;5086117;28;20034;-66
2022/11/10 03:21:38;;;;;;;3.42;2.28;;;;;;;;;;5083608;27;20035;-60
2022/11/10 03:24:04;;;;;;;2.72;1.40;;;;;;;;;;5082368;28;20129;-64
2022/11/10 03:26:31;;;;;;;2.65;1.60;;;;;;;;;;5084250;27;20066;-62
2022/11/10 03:28:58;;;;;;;1.58;1.00;;;;;;;;;;5092281;27;21086;-64
2022/11/10 03:31:24;;;;;;;1.95;1.27;;;;;;;;;;5085337;28;20079;-66
2022/11/10 03:33:51;;;;;;;2.53;1.85;;;;;;;;;;5085080;28;20035;-62
2022/11/10 03:36:17;;;;;;;3.22;1.48;;;;;;;;;;5086463;28;20128;-64
2022/11/10 03:38:44;;;;;;;0.82;0.60;;;;;;;;;;5085068;28;20383;-63
2022/11/10 03:41:10;;;;;;;2.38;1.20;;;;;;;;;;5083917;27;20043;-64
2022/11/10 03:43:37;;;;;;;2.42;1.20;;;;;;;;;;5070473;28;21026;-66
2022/11/10 03:46:04;;;;;;;2.83;2.33;;;;;;;;;;5064282;28;20051;-63
2022/11/10 03:48:30;;;;;;;15.00;2.72;;;;;;;;;;5084060;28;20129;-61
2022/11/10 03:50:57;;;;;;;5.00;2.10;;;;;;;;;;5084983;28;20487;-63
2022/11/10 03:53:23;;;;;;;1.20;0.70;;;;;;;;;;5084543;28;20032;-63
2022/11/10 03:55:50;;;;;;;1.67;1.23;;;;;;;;;;5100413;28;20519;-63
2022/11/10 03:58:16;;;;;;;1.65;1.48;;;;;;;;;;5083953;28;20079;-64
2022/11/10 04:00:43;;;;;;;3.72;2.05;;;;;;;;;;5084792;27;20043;-62
2022/11/10 04:03:10;;;;;;;1.33;1.05;;;;;;;;;;5083633;28;20571;-62
2022/11/10 04:11:07;;;;;;;2.45;1.58;;;;;;;;;;5084158;27;20077;-67
2022/11/10 04:16:19;;;;;;;6.05;2.40;;;;;;;;;;5084390;28;20101;-71
2022/11/10 04:19:05;;;;;;;3.83;2.15;;;;;;;;;;5021694;28;20108;-69
2022/11/10 04:21:32;;;;;;;3.55;2.60;;;;;;;;;;5019440;28;20040;-66
2022/11/10 04:23:58;;;;;;;2.38;1.48;;;;;;;;;;5017492;28;20081;-62
2022/11/10 04:26:27;;;;;;;3.00;1.27;;;;;;;;;;5020888;28;20421;-63
2022/11/10 04:28:55;;;;;;;2.10;1.95;;;;;;;;;;5021064;28;21813;-61
2022/11/10 04:31:22;;;;;;;1.90;1.10;;;;;;;;;;5019679;28;20053;-60
2022/11/10 04:33:50;;;;;;;2.30;2.10;;;;;;;;;;5023439;28;20517;-61
2022/11/10 04:36:18;;;;;;;3.00;1.85;;;;;;;;;;5006133;28;20041;-62
2022/11/10 04:38:45;;;;;;;5.43;2.70;;;;;;;;;;5024612;28;20049;-63
2022/11/10 04:41:12;;;;;;;2.63;1.95;;;;;;;;;;5024984;28;20145;-61
2022/11/10 04:43:39;;;;;;;3.17;1.73;;;;;;;;;;5024401;28;20045;-62
2022/11/10 04:46:06;;;;;;;1.58;1.38;;;;;;;;;;5026167;28;20041;-64
2022/11/10 04:48:33;;;;;;;17.80;3.13;;;;;;;;;;5007578;28;20049;-62
2022/11/10 04:51:06;;;;;;;3.13;2.30;;;;;;;;;;5024896;28;20129;-62
2022/11/10 04:53:33;;;;;;;3.50;2.70;;;;;;;;;;5023567;28;20041;-63
2022/11/10 04:56:00;;;;;;;4.85;2.35;;;;;;;;;;5041749;28;20953;-65
2022/11/10 04:58:27;;;;;;;1.27;1.17;;;;;;;;;;5086290;28;20410;-63
2022/11/10 05:00:53;;;;;;;2.65;1.55;;;;;;;;;;5088519;27;20051;-65
2022/11/10 05:03:20;;;;;;;4.57;3.47;;;;;;;;;;5064516;28;20999;-64
2022/11/10 05:05:48;;;;;;;2.55;2.10;;;;;;;;;;5085681;27;20768;-63
2022/11/10 05:08:33;;;;;;;1.15;0.70;;;;;;;;;;5033464;28;20173;-63
2022/11/10 05:11:00;;;;;;;3.55;1.70;;;;;;;;;;5040597;28;20535;-65
2022/11/10 05:13:26;;;;;;;4.60;2.85;;;;;;;;;;5040488;28;20090;-64
2022/11/10 05:15:55;;;;;;;2.97;1.73;;;;;;;;;;5027172;28;20048;-66
2022/11/10 05:18:21;;;;;;;1.30;1.20;;;;;;;;;;5043791;28;20393;-62
2022/11/10 05:20:48;;;;;;;12.95;3.40;;;;;;;;;;5044240;28;20061;-63
2022/11/10 05:25:59;;;;;;;1.70;1.42;;;;;;;;;;5045590;28;20052;-62
2022/11/10 05:28:26;;;;;;;3.95;3.25;;;;;;;;;;5043923;28;20045;-62
2022/11/10 05:30:53;;;;;;;5.05;1.92;;;;;;;;;;5044162;28;20451;-63
2022/11/10 05:33:19;;;;;;;2.25;1.83;;;;;;;;;;5043745;28;20127;-62
2022/11/10 05:35:48;;;;;;;2.30;1.58;;;;;;;;;;5043846;28;20041;-62
2022/11/10 05:38:15;;;;;;;9.75;3.65;;;;;;;;;;5044955;28;20195;-63
2022/11/10 05:40:42;;;;;;;7.13;3.05;;;;;;;;;;5083404;28;20036;-62
2022/11/10 05:43:08;;;;;;;4.97;3.20;;;;;;;;;;5087125;28;20475;-64
2022/11/10 05:45:35;;;;;;;3.67;2.45;;;;;;;;;;5082591;28;20070;-62
2022/11/10 05:48:02;;;;;;;8.68;3.28;;;;;;;;;;5086820;28;20044;-61
2022/11/10 05:50:28;;;;;;;4.07;3.08;;;;;;;;;;5087167;28;20040;-61
2022/11/10 05:52:55;;;;;;;3.97;2.80;;;;;;;;;;5087601;28;20141;-62
2022/11/10 05:55:23;;;;;;;3.58;2.75;;;;;;;;;;5085731;28;20049;-63
2022/11/10 05:57:51;;;;;;;3.05;2.58;;;;;;;;;;5087574;28;20143;-61
2022/11/10 06:00:22;;;;;;;9.07;3.05;;;;;;;;;;5086565;28;20082;-61
2022/11/10 06:03:03;;;;;;;7.70;3.45;;;;;;;;;;5086977;28;20136;-61
2022/11/10 06:05:35;;;;;;;7.78;2.65;;;;;;;;;;5084370;28;20526;-61
2022/11/10 06:08:04;;;;;;;2.53;1.75;;;;;;;;;;5086602;28;20047;-63
2022/11/10 06:10:31;;;;;;;2.42;1.85;;;;;;;;;;5086522;28;20958;-62
2022/11/10 06:12:57;;;;;;;3.42;1.65;;;;;;;;;;5085487;28;20065;-61
2022/11/10 06:15:25;;;;;;;3.20;2.05;;;;;;;;;;5084869;28;20048;-63
2022/11/10 06:17:52;;;;;;;3.95;2.25;;;;;;;;;;5085157;27;20465;-62
2022/11/10 06:20:19;;;;;;;4.95;2.30;;;;;;;;;;5087719;28;20575;-61
2022/11/10 06:22:59;;;;;;;4.57;3.42;;;;;;;;;;5085767;28;20036;-61
2022/11/10 06:25:27;;;;;;;6.22;3.38;;;;;;;;;;5084639;28;20542;-61
2022/11/10 06:27:54;;;;;;;3.50;2.63;;;;;;;;;;5087693;28;20142;-63
2022/11/10 06:30:20;;;;;;;5.35;3.05;;;;;;;;;;5085676;28;20039;-62
2022/11/10 06:32:47;;;;;;;2.95;2.17;;;;;;;;;;5086316;27;20036;-62
2022/11/10 06:35:14;;;;;;;3.58;2.35;;;;;;;;;;5085677;28;20036;-62
2022/11/10 06:37:41;;;;;;;3.13;2.42;;;;;;;;;;5084625;28;20147;-61
2022/11/10 06:40:09;;;;;;;6.22;3.53;;;;;;;;;;5086707;28;20047;-61
2022/11/10 06:42:36;;;;;;;3.08;2.08;;;;;;;;;;5085893;27;20028;-60
2022/11/10 06:45:03;;;;;;;1.52;1.13;;;;;;;;;;5086876;28;20035;-61
2022/11/10 06:47:29;;;;;;;3.22;2.53;;;;;;;;;;5085220;28;20067;-61
2022/11/10 06:49:56;;;;;;;5.78;3.03;;;;;;;;;;5085824;28;20044;-58
2022/11/10 06:52:23;;;;;;;3.80;2.25;;;;;;;;;;5084884;28;20525;-61
2022/11/10 06:54:49;;;;;;;1.95;1.23;;;;;;;;;;5086198;28;20063;-61
2022/11/10 06:57:16;;;;;;;2.88;1.73;;;;;;;;;;5085934;28;20044;-60
2022/11/10 06:59:43;;;;;;;2.10;1.60;;;;;;;;;;5087109;27;20063;-61
2022/11/10 07:02:16;;;;;;;1.77;1.10;;;;;;;;;;5069739;28;20044;-62
2022/11/10 07:04:42;;;;;;;4.45;2.45;;;;;;;;;;5083487;27;20039;-61
2022/11/10 07:07:10;;;;;;;4.53;3.10;;;;;;;;;;5078216;28;20404;-63
2022/11/10 07:09:36;;;;;;;3.38;2.13;;;;;;;;;;5086397;27;20561;-65
2022/11/10 07:12:03;;;;;;;3.65;1.40;;;;;;;;;;5087528;28;20048;-62
2022/11/10 07:14:30;;;;;;;4.25;2.65;;;;;;;;;;5084779;28;20415;-63
2022/11/10 07:16:57;;;;;;;1.95;1.30;;;;;;;;;;5086999;28;20117;-60
2022/11/10 07:19:23;;;;;;;1.98;1.63;;;;;;;;;;5084734;28;20162;-59
2022/11/10 07:21:50;;;;;;;5.25;2.63;;;;;;;;;;5085122;28;21409;-59
2022/11/10 07:24:17;;;;;;;5.53;2.45;;;;;;;;;;5085231;28;20050;-60
2022/11/10 07:26:44;;;;;;;1.35;0.93;;;;;;;;;;5087014;28;20392;-63
2022/11/10 07:29:11;;;;;;;1.83;1.65;;;;;;;;;;5085360;28;20131;-56
2022/11/10 07:31:37;;;;;;;4.05;2.40;;;;;;;;;;5085354;28;20420;-60
2022/11/10 07:34:04;;;;;;;3.55;1.67;;;;;;;;;;5086016;28;20047;-64
2022/11/10 07:36:30;;;;;;;4.03;2.83;;;;;;;;;;5084349;28;20032;-62
2022/11/10 07:38:57;;;;;;;1.77;1.50;;;;;;;;;;5086340;28;20050;-62
2022/11/10 07:41:24;;;;;;;1.98;1.52;;;;;;;;;;5085900;27;20088;-61
2022/11/10 07:43:50;;;;;;;3.55;2.88;;;;;;;;;;5086497;28;20124;-61
2022/11/10 07:46:17;;;;;;;14.40;3.25;;;;;;;;;;5071446;28;20198;-58
2022/11/10 07:48:43;;;;;;;3.15;2.15;;;;;;;;;;5083896;28;20059;-60
2022/11/10 07:51:10;;;;;;;2.70;1.52;;;;;;;;;;5079561;28;20044;-61
2022/11/10 07:53:37;;;;;;;2.60;1.58;;;;;;;;;;5085990;28;20659;-61
2022/11/10 07:56:04;;;;;;;3.28;1.75;;;;;;;;;;5085695;28;20043;-63
2022/11/10 07:58:31;;;;;;;1.63;1.05;;;;;;;;;;5084499;28;20408;-61
2022/11/10 08:00:58;;;;;;;2.38;1.67;;;;;;;;;;5083088;28;20036;-62
2022/11/10 08:03:25;;;;;;;2.97;1.48;;;;;;;;;;5083893;28;20134;-60
2022/11/10 08:05:51;;;;;;;2.55;2.05;;;;;;;;;;5084313;28;20042;-61
2022/11/10 08:08:18;;;;;;;3.67;2.55;;;;;;;;;;5088859;28;20087;-62
2022/11/10 08:10:44;;;;;;;3.38;1.63;;;;;;;;;;5087276;27;20044;-63
2022/11/10 08:13:12;;;;;;;3.63;2.10;;;;;;;;;;5089551;28;20671;-64
2022/11/10 08:15:39;;;;;;;4.13;1.98;;;;;;;;;;5089080;27;20036;-61
2022/11/10 08:18:08;;;;;;;3.83;2.13;;;;;;;;;;5090290;28;20514;-60
2022/11/10 08:20:34;;;;;;;2.10;1.77;;;;;;;;;;5087356;27;20032;-61
2022/11/10 08:23:05;;;;;;;2.15;1.65;;;;;;;;;;5087270;28;20032;-60
2022/11/10 08:25:33;;;;;;;6.90;1.75;;;;;;;;;;5086514;28;20160;-59
2022/11/10 08:28:00;;;;;;;2.50;2.22;;;;;;;;;;5088500;28;20555;-61
2022/11/10 08:30:28;;;;;;;1.80;1.05;;;;;;;;;;5089904;28;20043;-61
2022/11/10 08:32:55;;;;;;;3.05;2.08;;;;;;;;;;5089023;28;20040;-61
2022/11/10 08:35:22;;;;;;;0.47;0.38;;;;;;;;;;5088284;28;20040;-61
2022/11/10 08:37:49;;;;;;;1.30;0.68;;;;;;;;;;5088175;28;20036;-61
2022/11/10 08:40:17;;;;;;;1.70;1.38;;;;;;;;;;5088917;28;20048;-59
2022/11/10 08:42:43;;;;;;;2.65;1.90;;;;;;;;;;5090465;28;20047;-61
2022/11/10 08:45:10;;;;;;;1.67;0.98;;;;;;;;;;5087072;28;20496;-59
2022/11/10 08:47:37;;;;;;;2.78;1.30;;;;;;;;;;5087842;28;20028;-61
2022/11/10 08:50:04;;;;;;;2.15;1.75;;;;;;;;;;5088934;28;20047;-62
2022/11/10 08:52:30;;;;;;;5.38;2.67;;;;;;;;;;5089081;28;20174;-64
2022/11/10 08:54:57;;;;;;;1.83;0.82;;;;;;;;;;5089848;27;20084;-61
2022/11/10 08:57:23;;;;;;;3.85;1.27;;;;;;;;;;5089059;28;20035;-62
2022/11/10 08:59:50;;;;;;;3.50;2.15;;;;;;;;;;5088323;28;20126;-62
2022/11/10 09:02:16;;;;;;;1.73;1.63;;;;;;;;;;5089519;28;20381;-62
2022/11/10 09:04:43;;;;;;;1.63;1.20;;;;;;;;;;5088077;27;20123;-61
2022/11/10 09:07:10;;;;;;;3.05;1.13;;;;;;;;;;5089328;28;20058;-64
2022/11/10 09:09:36;;;;;;;1.83;1.40;;;;;;;;;;5073230;28;21002;-62
2022/11/10 09:12:03;;;;;;;1.67;0.98;;;;;;;;;;5087081;28;20395;-62
2022/11/10 09:14:29;;;;;;;1.15;1.00;;;;;;;;;;5086729;27;20043;-62
2022/11/10 09:16:56;;;;;;;1.23;0.80;;;;;;;;;;5088063;28;20695;-64
2022/11/10 09:19:22;;;;;;;1.92;1.33;;;;;;;;;;5085635;27;20039;-61
2022/11/10 09:21:49;;;;;;;1.73;1.42;;;;;;;;;;5088754;28;20456;-60
2022/11/10 09:24:16;;;;;;;1.85;1.05;;;;;;;;;;5088092;28;20040;-60
2022/11/10 09:26:46;;;;;;;2.15;1.52;;;;;;;;;;5087290;28;20556;-61
2022/11/10 09:29:12;;;;;;;1.63;0.98;;;;;;;;;;5088716;28;20067;-61
2022/11/10 09:31:39;;;;;;;1.73;1.20;;;;;;;;;;5086791;27;20047;-62
2022/11/10 09:34:06;;;;;;;8.68;2.90;;;;;;;;;;5087458;28;20645;-61
2022/11/10 09:36:32;;;;;;;2.30;1.65;;;;;;;;;;5088265;28;20040;-60
2022/11/10 09:38:59;;;;;;;2.33;1.35;;;;;;;;;;5088064;28;20055;-63
2022/11/10 09:41:28;;;;;;;2.20;1.55;;;;;;;;;;5088193;27;20534;-62
2022/11/10 09:44:13;;;;;;;9.35;4.05;;;;;;;;;;5088638;28;20602;-61
2022/11/10 09:47:00;;;;;;;4.82;2.50;;;;;;;;;;5086861;28;20384;-61
2022/11/10 09:49:29;;;;;;;2.53;1.23;;;;;;;;;;5086543;27;20139;-64
2022/11/10 09:51:57;;;;;;;2.33;1.10;;;;;;;;;;5087545;28;20089;-61
2022/11/10 09:54:29;;;;;;;1.27;1.17;;;;;;;;;;5071257;27;20054;-61
2022/11/10 09:56:59;;;;;;;4.20;2.13;;;;;;;;;;5087561;28;20958;-60
2022/11/10 09:59:27;;;;;;;5.43;3.25;;;;;;;;;;5087939;28;20036;-61
2022/11/10 10:01:53;;;;;;;6.80;3.17;;;;;;;;;;5087005;28;20044;-63
2022/11/10 10:04:23;;;;;;;4.53;2.45;;;;;;;;;;5086183;28;20032;-61
2022/11/10 10:06:56;;;;;;;2.38;1.30;;;;;;;;;;5087871;28;21821;-63
2022/11/10 10:09:38;;;;;;;4.72;2.25;;;;;;;;;;5085360;28;20065;-61
2022/11/10 10:12:14;;;;;;;5.05;2.70;;;;;;;;;;5087930;28;20044;-61
2022/11/10 10:14:51;;;;;;;1.27;1.13;;;;;;;;;;5080180;27;20032;-61
2022/11/10 10:17:29;;;;;;;3.42;1.92;;;;;;;;;;5098798;27;20586;-62
2022/11/10 10:20:01;;;;;;;1.55;1.27;;;;;;;;;;5087286;27;20562;-60
2022/11/10 10:22:28;;;;;;;2.10;1.63;;;;;;;;;;5086857;28;20032;-59
2022/11/10 10:24:57;;;;;;;3.17;1.70;;;;;;;;;;5085157;27;20040;-63
2022/11/10 10:27:25;;;;;;;1.50;1.02;;;;;;;;;;5086564;28;20078;-63
2022/11/10 10:29:52;;;;;;;3.55;1.60;;;;;;;;;;5083346;28;20051;-61
2022/11/10 10:32:21;;;;;;;2.42;1.90;;;;;;;;;;5085238;28;20035;-60
2022/11/10 10:34:48;;;;;;;1.67;1.58;;;;;;;;;;5087195;27;21390;-61
2022/11/10 10:37:29;;;;;;;3.28;2.13;;;;;;;;;;5088477;28;20036;-62
2022/11/10 10:39:56;;;;;;;1.40;0.73;;;;;;;;;;5061598;28;20040;-61
2022/11/10 10:42:30;;;;;;;2.80;2.00;;;;;;;;;;5063397;28;20044;-62
2022/11/10 10:45:16;;;;;;;11.30;1.40;;;;;;;;;;5061608;28;20073;-62
2022/11/10 10:47:43;;;;;;;0.80;0.65;;;;;;;;;;5061846;28;20036;-62
2022/11/10 10:50:33;;;;;;;3.17;1.85;;;;;;;;;;5062418;28;20047;-61
2022/11/10 10:53:08;;;;;;;0.88;0.82;;;;;;;;;;5077831;28;20068;-63
2022/11/10 10:55:36;;;;;;;1.42;1.10;;;;;;;;;;5061805;28;20040;-61
2022/11/10 10:58:04;;;;;;;1.63;0.98;;;;;;;;;;5044317;28;20069;-63
2022/11/10 11:00:32;;;;;;;4.57;1.85;;;;;;;;;;5045301;28;20499;-62
2022/11/10 11:03:04;;;;;;;1.67;1.02;;;;;;;;;;5062461;28;20072;-62
2022/11/10 11:05:31;;;;;;;3.28;1.70;;;;;;;;;;5061500;28;20029;-61
2022/11/10 11:07:59;;;;;;;1.45;0.90;;;;;;;;;;5061508;28;21025;-62
2022/11/10 11:10:28;;;;;;;1.60;1.08;;;;;;;;;;5061253;28;20039;-60
2022/11/10 11:13:12;;;;;;;2.67;1.33;;;;;;;;;;5062069;28;20090;-59
2022/11/10 11:15:38;;;;;;;0.68;0.50;;;;;;;;;;5061826;28;20086;-61
2022/11/10 11:18:12;;;;;;;2.47;1.92;;;;;;;;;;5062156;28;20036;-61
2022/11/10 11:20:44;;;;;;;1.77;1.05;;;;;;;;;;5059716;28;20041;-61
2022/11/10 11:23:20;;;;;;;0.57;0.57;;;;;;;;;;5062947;28;20031;-61
2022/11/10 11:25:48;;;;;;;1.55;1.45;;;;;;;;;;5061569;28;20117;-61
2022/11/10 11:28:14;;;;;;;0.43;0.40;;;;;;;;;;5063480;28;20052;-61
2022/11/10 11:31:04;;;;;;;1.83;1.35;;;;;;;;;;5060423;28;20067;-59
2022/11/10 11:33:43;;;;;;;2.13;1.13;;;;;;;;;;5059961;28;20036;-59
2022/11/10 11:36:19;;;;;;;10.32;2.42;;;;;;;;;;5062939;28;21052;-61
2022/11/10 11:38:48;;;;;;;1.80;1.38;;;;;;;;;;5071146;28;20056;-62
2022/11/10 11:41:23;;;;;;;0.95;0.73;;;;;;;;;;5085718;28;20035;-61
2022/11/10 11:43:57;;;;;;;1.35;1.00;;;;;;;;;;5085041;28;21095;-62
2022/11/10 11:46:46;;;;;;;2.15;1.35;;;;;;;;;;5085804;28;20498;-62
2022/11/10 11:49:28;;;;;;;0.80;0.73;;;;;;;;;;5084935;28;20444;-62
2022/11/10 11:52:02;;;;;;;2.28;1.65;;;;;;;;;;5085264;28;20073;-60
2022/11/10 11:54:54;;;;;;;5.15;1.92;;;;;;;;;;5084844;28;20039;-61
2022/11/10 11:57:39;;;;;;;1.00;0.73;;;;;;;;;;5084933;28;20036;-62
2022/11/10 12:00:10;;;;;;;1.00;0.63;;;;;;;;;;5085307;28;20066;-61
2022/11/10 12:03:00;;;;;;;1.13;0.57;;;;;;;;;;5086125;28;20035;-60
2022/11/10 12:05:35;;;;;;;1.52;0.80;;;;;;;;;;5085546;28;20036;-59
2022/11/10 12:08:02;;;;;;;1.98;1.02;;;;;;;;;;5085990;28;20048;-60
2022/11/10 12:10:36;;;;;;;0.75;0.63;;;;;;;;;;5084980;28;20643;-64
2022/11/10 12:13:12;;;;;;;4.65;1.30;;;;;;;;;;5086220;28;20055;-62
2022/11/10 12:15:57;;;;;;;1.20;0.82;;;;;;;;;;5084941;27;20388;-60
2022/11/10 12:18:31;;;;;;;0.95;0.70;;;;;;;;;;5085615;28;20047;-61
2022/11/10 12:21:10;;;;;;;1.80;1.00;;;;;;;;;;5071909;28;20048;-61
2022/11/10 12:23:46;;;;;;;3.20;1.60;;;;;;;;;;5070046;28;20048;-59
2022/11/10 12:26:25;;;;;;;5.60;1.38;;;;;;;;;;5086065;27;20178;-60
2022/11/10 12:29:10;;;;;;;0.57;0.57;;;;;;;;;;5084160;28;20055;-62
2022/11/10 12:31:38;;;;;;;1.02;0.70;;;;;;;;;;5085203;27;20048;-61
2022/11/10 12:34:28;;;;;;;4.57;1.75;;;;;;;;;;5064876;28;20472;-59
2022/11/10 12:36:57;;;;;;;1.00;0.98;;;;;;;;;;5084279;28;20044;-60
2022/11/10 12:39:26;;;;;;;1.95;1.20;;;;;;;;;;5084284;28;20105;-61
2022/11/10 12:41:55;;;;;;;1.70;1.15;;;;;;;;;;5085623;28;20571;-61
2022/11/10 12:44:41;;;;;;;1.83;1.05;;;;;;;;;;5085878;28;20070;-61
2022/11/10 12:47:11;;;;;;;1.23;0.73;;;;;;;;;;5085507;28;20408;-58
2022/11/10 12:49:40;;;;;;;1.05;0.77;;;;;;;;;;5083171;28;20052;-60
2022/11/10 12:52:16;;;;;;;0.85;0.60;;;;;;;;;;5084870;28;20040;-61
2022/11/10 12:54:44;;;;;;;1.45;1.00;;;;;;;;;;5087159;27;20081;-61
2022/11/10 12:57:19;;;;;;;1.05;0.98;;;;;;;;;;5088897;28;20062;-61
2022/11/10 12:59:55;;;;;;;4.57;1.85;;;;;;;;;;5086579;28;20046;-60
2022/11/10 13:02:22;;;;;;;2.40;1.73;;;;;;;;;;5088673;28;20544;-60
2022/11/10 13:05:08;;;;;;;0.75;0.40;;;;;;;;;;5088378;28;20109;-63
2022/11/10 13:07:35;;;;;;;1.38;0.85;;;;;;;;;;5049286;28;20051;-64
2022/11/10 13:10:20;;;;;;;1.98;1.33;;;;;;;;;;5088366;28;20636;-61
2022/11/10 13:13:05;;;;;;;1.83;1.15;;;;;;;;;;5088021;28;20039;-61
2022/11/10 13:15:37;;;;;;;2.78;1.42;;;;;;;;;;5086948;27;20047;-63
2022/11/10 13:18:04;;;;;;;3.17;1.43;;;;;;;;;;5086860;28;20526;-60
2022/11/10 13:20:49;;;;;;;1.60;1.50;;;;;;;;;;5084549;28;20035;-60
2022/11/10 13:23:28;;;;;;;1.75;1.20;;;;;;;;;;5080651;28;20919;-62
2022/11/10 13:25:59;;;;;;;2.40;1.20;;;;;;;;;;5086683;27;20099;-63
2022/11/10 13:28:44;;;;;;;2.20;1.30;;;;;;;;;;5087290;28;20044;-60
2022/11/10 13:31:26;;;;;;;1.63;1.17;;;;;;;;;;5087640;27;20044;-61
2022/11/10 13:34:09;;;;;;;2.63;1.35;;;;;;;;;;5102902;27;20040;-61
2022/11/10 13:36:38;;;;;;;0.93;0.80;;;;;;;;;;5089242;28;20661;-61
2022/11/10 13:39:23;;;;;;;1.48;0.90;;;;;;;;;;5073310;28;20422;-61
2022/11/10 13:42:08;;;;;;;1.23;1.00;;;;;;;;;;5085721;28;20177;-62
2022/11/10 13:44:38;;;;;;;1.23;0.80;;;;;;;;;;5076225;28;20458;-64
2022/11/10 13:47:08;;;;;;;5.78;2.10;;;;;;;;;;5088797;28;20032;-63
2022/11/10 13:49:53;;;;;;;0.47;0.43;;;;;;;;;;5087205;28;20061;-63
2022/11/10 13:52:24;;;;;;;1.00;0.80;;;;;;;;;;5088157;27;20064;-63
2022/11/10 13:54:50;;;;;;;1.52;1.15;;;;;;;;;;5088861;28;20039;-61
2022/11/10 13:57:22;;;;;;;0.98;0.80;;;;;;;;;;5088806;27;20519;-63
2022/11/10 13:59:55;;;;;;;0.77;0.68;;;;;;;;;;5087832;28;20039;-63
2022/11/10 14:02:21;;;;;;;;;;;;;;;;;;5087950;27;20395;-64
2022/11/10 14:04:49;;;;;;;0.68;0.55;;;;;;;;;;5088774;28;19919;-63
2022/11/10 14:07:17;;;;;;;1.33;1.02;;;;;;;;;;5089337;28;20436;-62
2022/11/10 14:09:53;;;;;;;1.10;0.68;;;;;;;;;;5089424;28;20127;-64
2022/11/10 14:12:25;;;;;;;1.17;0.68;;;;;;;;;;5091023;28;20032;-62
2022/11/10 14:15:00;;;;;;;1.52;0.90;;;;;;;;;;5090137;28;20027;-62
2022/11/10 14:17:41;;;;;;;2.63;1.17;;;;;;;;;;5090405;28;20035;-63
2022/11/10 14:20:21;;;;;;;2.63;1.38;;;;;;;;;;5089316;28;20055;-59
2022/11/10 14:22:51;;;;;;;1.48;0.63;;;;;;;;;;5090645;28;20498;-66
2022/11/10 14:25:24;;;;;;;0.73;0.73;;;;;;;;;;5088361;28;20039;-63
2022/11/10 14:27:50;;;;;;;0.70;0.63;;;;;;;;;;5086707;28;20062;-62
2022/11/10 14:30:24;;;;;;;2.72;1.35;;;;;;;;;;5087894;28;20058;-62
2022/11/10 14:32:59;;;;;;;3.53;1.85;;;;;;;;;;5088453;28;20040;-62
2022/11/10 14:35:29;;;;;;;1.02;0.75;;;;;;;;;;5089410;28;20551;-64
2022/11/10 14:38:00;;;;;;;1.77;1.25;;;;;;;;;;5088159;28;20038;-62
2022/11/10 14:40:27;;;;;;;0.77;0.50;;;;;;;;;;5087842;28;20103;-64
2022/11/10 14:42:54;;;;;;;1.58;0.80;;;;;;;;;;5087494;28;20031;-62
2022/11/10 14:45:22;;;;;;;3.55;2.88;;;;;;;;;;5088521;28;20076;-62
2022/11/10 14:47:52;;;;;;;3.30;1.17;;;;;;;;;;5088506;28;20052;-62
2022/11/10 14:50:25;;;;;;;0.95;0.52;;;;;;;;;;5088211;28;20051;-62
2022/11/10 14:52:54;;;;;;;1.73;1.13;;;;;;;;;;5087116;28;21076;-65
2022/11/10 14:55:26;;;;;;;1.05;0.90;;;;;;;;;;5089211;28;20273;-62
2022/11/10 14:57:55;;;;;;;9.57;1.65;;;;;;;;;;5088203;28;20582;-62
2022/11/10 15:00:24;;;;;;;1.35;1.15;;;;;;;;;;5088735;28;20032;-63
2022/11/10 15:02:52;;;;;;;0.65;0.60;;;;;;;;;;5067433;28;20027;-61
2022/11/10 15:05:18;;;;;;;1.25;0.85;;;;;;;;;;5064378;28;20031;-61
2022/11/10 15:07:45;;;;;;;1.55;1.27;;;;;;;;;;5086099;28;20048;-61
2022/11/10 15:10:15;;;;;;;0.70;0.65;;;;;;;;;;5065706;28;20426;-63
2022/11/10 15:12:41;;;;;;;0.63;0.60;;;;;;;;;;5087458;28;20085;-64